Time;durP1;ratioP1;P1;durP2;ratioP2;P2;SDS_P1;SDS_P2;PMS_P1;PMS_P2;Temp;Humidity;BMP_temperature;BMP_pressure;BME280_temperature;BME280_humidity;BME280_pressure;Samples;Min_cycle;Max_cycle;Signal;HPM_P1;HPM_P2
2024/01/21 05:05:49;;;;;;;0.65;0.65;;;-3.50;99.90;;;;;;5760922;23;20729;-60
2024/01/21 05:08:15;;;;;;;0.40;0.40;;;-3.40;99.90;;;;;;4935143;29;20351;-59
2024/01/21 05:10:40;;;;;;;0.33;0.33;;;-3.30;99.90;;;;;;4935180;29;20261;-61
2024/01/21 05:13:06;;;;;;;0.43;0.43;;;-3.20;99.90;;;;;;4935241;29;20200;-60
2024/01/21 05:15:32;;;;;;;0.60;0.60;;;-3.00;99.90;;;;;;4934702;29;20197;-60
2024/01/21 05:17:57;;;;;;;0.40;0.40;;;-2.90;99.90;;;;;;4935055;29;20581;-60
2024/01/21 05:20:23;;;;;;;0.40;0.40;;;-2.70;99.90;;;;;;4938308;29;20221;-60
2024/01/21 05:22:50;;;;;;;0.40;0.40;;;-2.70;99.90;;;;;;4938262;29;20217;-60
2024/01/21 05:25:17;;;;;;;0.50;0.50;;;-2.60;99.90;;;;;;4937894;29;20186;-60
2024/01/21 05:27:42;;;;;;;1.35;1.35;;;-2.60;99.90;;;;;;4938455;29;20222;-60
2024/01/21 05:30:08;;;;;;;0.50;0.50;;;-2.60;99.90;;;;;;4938192;29;20170;-60
2024/01/21 05:32:34;;;;;;;0.50;0.50;;;-2.60;99.90;;;;;;4938171;29;20181;-61
2024/01/21 05:34:59;;;;;;;0.40;0.40;;;-2.80;99.90;;;;;;4937143;29;20181;-60
2024/01/21 05:37:25;;;;;;;0.40;0.40;;;-2.90;99.90;;;;;;4937691;29;20173;-61
2024/01/21 05:39:50;;;;;;;0.47;0.47;;;-3.00;99.90;;;;;;4916817;29;20181;-60
2024/01/21 05:42:16;;;;;;;0.50;0.50;;;-3.10;99.90;;;;;;4919138;29;20272;-60
2024/01/21 05:44:42;;;;;;;0.40;0.40;;;-3.00;99.90;;;;;;4918637;29;20171;-60
2024/01/21 05:47:07;;;;;;;0.40;0.40;;;-3.00;99.90;;;;;;4918774;29;20190;-60
2024/01/21 05:49:33;;;;;;;0.40;0.40;;;-3.00;99.90;;;;;;4918877;29;20522;-60
2024/01/21 05:51:58;;;;;;;0.43;0.43;;;-3.00;99.90;;;;;;4918889;29;20299;-60
2024/01/21 05:54:27;;;;;;;0.50;0.50;;;-2.90;99.90;;;;;;4924843;29;20256;-61
2024/01/21 05:56:52;;;;;;;0.50;0.50;;;-2.90;99.90;;;;;;4935854;29;20370;-59
2024/01/21 05:59:20;;;;;;;0.43;0.43;;;-2.90;99.90;;;;;;4937815;29;20295;-60
2024/01/21 06:01:49;;;;;;;0.40;0.40;;;-2.90;99.90;;;;;;4937526;29;20213;-60
2024/01/21 06:04:15;;;;;;;0.40;0.40;;;-3.00;99.90;;;;;;4937769;29;20675;-65
2024/01/21 06:06:41;;;;;;;0.40;0.40;;;-3.10;99.90;;;;;;4937272;29;20214;-59
2024/01/21 06:09:06;;;;;;;0.40;0.40;;;-3.20;99.90;;;;;;4933022;29;20189;-59
2024/01/21 06:11:33;;;;;;;0.40;0.40;;;-3.30;99.90;;;;;;4917291;29;20265;-59
2024/01/21 06:13:58;;;;;;;0.50;0.50;;;-3.30;99.90;;;;;;4918305;29;20176;-60
2024/01/21 06:16:24;;;;;;;0.50;0.50;;;-3.40;99.90;;;;;;4918034;29;20278;-60
2024/01/21 06:18:49;;;;;;;0.40;0.40;;;-3.40;99.90;;;;;;4918390;29;20179;-60
2024/01/21 06:21:16;;;;;;;0.40;0.40;;;-3.60;99.90;;;;;;4918543;29;20208;-60
2024/01/21 06:23:42;;;;;;;0.50;0.50;;;-3.60;99.90;;;;;;4917024;29;20707;-59
2024/01/21 06:26:26;;;;;;;0.50;0.50;;;-3.60;99.90;;;;;;4916578;29;20194;-60
2024/01/21 06:28:52;;;;;;;0.40;0.40;;;-3.60;99.90;;;;;;4918491;29;20201;-60
2024/01/21 06:31:18;;;;;;;0.50;0.50;;;-3.70;99.90;;;;;;4917776;29;20644;-61
2024/01/21 06:33:44;;;;;;;0.47;0.47;;;-3.60;99.90;;;;;;4916855;29;20184;-59
2024/01/21 06:36:10;;;;;;;0.40;0.40;;;-3.60;99.90;;;;;;4916264;29;20208;-60
2024/01/21 06:38:38;;;;;;;0.43;0.43;;;-3.60;99.90;;;;;;4923425;29;20177;-60
2024/01/21 06:41:03;;;;;;;0.50;0.50;;;-3.60;99.90;;;;;;4950205;29;20193;-60
2024/01/21 06:43:30;;;;;;;0.45;0.45;;;-3.60;99.90;;;;;;4917709;29;20312;-61
2024/01/21 06:45:56;;;;;;;0.60;0.60;;;-3.60;99.90;;;;;;4917339;29;20273;-61
2024/01/21 06:48:21;;;;;;;0.50;0.50;;;-3.60;99.90;;;;;;4918308;29;20175;-60
2024/01/21 06:50:48;;;;;;;0.50;0.50;;;-3.60;99.90;;;;;;4917864;29;20167;-60
2024/01/21 06:53:15;;;;;;;0.40;0.40;;;-3.60;99.90;;;;;;4917963;29;20210;-60
2024/01/21 06:55:42;;;;;;;0.40;0.40;;;-3.70;99.90;;;;;;4917048;29;20253;-61
2024/01/21 06:58:08;;;;;;;0.40;0.40;;;-3.80;99.90;;;;;;4916220;29;20644;-59
2024/01/21 07:00:33;;;;;;;0.40;0.40;;;-3.80;99.90;;;;;;4917615;29;20193;-60
2024/01/21 07:02:59;;;;;;;0.40;0.40;;;-3.90;99.90;;;;;;4917498;29;20672;-61
2024/01/21 07:05:24;;;;;;;0.50;0.50;;;-3.90;99.90;;;;;;4917280;29;20194;-60
2024/01/21 07:07:50;;;;;;;0.40;0.40;;;-4.00;99.90;;;;;;4917580;29;20197;-61
2024/01/21 07:10:16;;;;;;;0.40;0.40;;;-4.00;99.90;;;;;;4932302;29;20181;-60
2024/01/21 07:12:42;;;;;;;0.40;0.40;;;-4.10;99.90;;;;;;4936866;29;20268;-60
2024/01/21 07:15:08;;;;;;;0.40;0.40;;;-4.10;99.90;;;;;;4936232;29;20173;-61
2024/01/21 07:17:34;;;;;;;0.40;0.40;;;-4.10;99.90;;;;;;4935196;29;20536;-60
2024/01/21 07:20:00;;;;;;;0.60;0.60;;;-4.10;99.90;;;;;;4936681;29;20178;-60
2024/01/21 07:22:25;;;;;;;0.47;0.47;;;-4.20;99.90;;;;;;4936388;29;20348;-60
2024/01/21 07:24:51;;;;;;;0.40;0.40;;;-4.20;99.90;;;;;;4921726;29;20189;-60
2024/01/21 07:27:16;;;;;;;0.47;0.47;;;-4.20;99.90;;;;;;4917020;29;20218;-61
2024/01/21 07:29:42;;;;;;;0.50;0.50;;;-4.10;99.90;;;;;;4917276;29;20181;-61
2024/01/21 07:32:08;;;;;;;0.47;0.47;;;-4.10;99.90;;;;;;4916987;29;20182;-61
2024/01/21 07:34:33;;;;;;;0.40;0.40;;;-4.00;99.90;;;;;;4916733;29;20175;-60
2024/01/21 07:36:59;;;;;;;0.40;0.40;;;-3.90;99.90;;;;;;4916866;29;20542;-61
2024/01/21 07:39:25;;;;;;;0.40;0.40;;;-3.70;99.90;;;;;;4929676;29;20192;-60
2024/01/21 07:41:50;;;;;;;0.40;0.40;;;-3.50;99.90;;;;;;4935747;29;20252;-60
2024/01/21 07:44:16;;;;;;;0.50;0.50;;;-3.30;99.90;;;;;;4935211;29;20255;-61
2024/01/21 07:46:41;;;;;;;0.40;0.40;;;-3.10;99.90;;;;;;4934541;29;20205;-60
2024/01/21 07:49:07;;;;;;;0.53;0.53;;;-2.90;99.90;;;;;;4935842;29;20581;-60
2024/01/21 07:51:33;;;;;;;0.40;0.40;;;-2.80;99.90;;;;;;4936367;29;20181;-60
2024/01/21 07:53:59;;;;;;;0.40;0.40;;;-2.60;99.90;;;;;;4935280;29;20179;-60
2024/01/21 07:56:24;;;;;;;0.40;0.40;;;-2.40;99.90;;;;;;4935482;29;20539;-60
2024/01/21 07:58:50;;;;;;;0.40;0.40;;;-2.20;99.90;;;;;;4935633;29;20167;-60
2024/01/21 08:01:20;;;;;;;0.40;0.40;;;-2.00;99.90;;;;;;4935300;29;20201;-60
2024/01/21 08:03:46;;;;;;;0.40;0.40;;;-1.90;99.90;;;;;;4935314;29;20213;-60
2024/01/21 08:06:11;;;;;;;0.50;0.50;;;-1.80;99.90;;;;;;4918923;29;20210;-59
2024/01/21 08:08:37;;;;;;;0.53;0.53;;;-1.70;99.90;;;;;;4932522;29;20407;-59
2024/01/21 08:11:03;;;;;;;0.60;0.60;;;-1.60;99.90;;;;;;4935512;29;20257;-62
2024/01/21 08:13:29;;;;;;;0.40;0.40;;;-1.50;99.90;;;;;;4935115;29;20239;-61
2024/01/21 08:15:55;;;;;;;0.40;0.40;;;-1.40;99.90;;;;;;4935012;29;20199;-60
2024/01/21 08:18:20;;;;;;;0.40;0.40;;;-1.30;99.90;;;;;;4935685;29;20182;-61
2024/01/21 08:20:47;;;;;;;0.40;0.40;;;-1.20;99.90;;;;;;4916965;29;20578;-60
2024/01/21 08:23:13;;;;;;;0.40;0.40;;;-1.00;99.90;;;;;;4915136;29;20212;-61
2024/01/21 08:25:39;;;;;;;0.38;0.38;;;-0.80;99.90;;;;;;4916106;29;20281;-60
2024/01/21 08:28:04;;;;;;;0.40;0.40;;;-0.60;99.90;;;;;;4916503;29;20212;-61
2024/01/21 08:30:30;;;;;;;1.27;1.27;;;-0.30;99.90;;;;;;4916417;29;20548;-60
2024/01/21 08:32:56;;;;;;;0.40;0.40;;;0.00;99.90;;;;;;4916334;29;20425;-61
2024/01/21 08:35:21;;;;;;;0.40;0.40;;;0.30;99.90;;;;;;4916929;29;20269;-61
2024/01/21 08:37:47;;;;;;;0.40;0.40;;;0.60;99.90;;;;;;4916531;29;20246;-60
2024/01/21 08:40:13;;;;;;;0.40;0.40;;;0.70;99.90;;;;;;4916389;29;20234;-60
2024/01/21 08:42:39;;;;;;;0.30;0.30;;;0.80;99.90;;;;;;4916472;29;20720;-60
2024/01/21 08:45:05;;;;;;;0.30;0.30;;;0.60;99.90;;;;;;4915837;29;20514;-59
2024/01/21 08:47:31;;;;;;;0.30;0.30;;;0.60;99.90;;;;;;4916710;29;20166;-59
2024/01/21 08:49:57;;;;;;;0.50;0.50;;;0.60;99.90;;;;;;4916215;29;20185;-62
2024/01/21 08:52:22;;;;;;;0.30;0.30;;;0.60;99.90;;;;;;4921955;29;20312;-63
2024/01/21 08:54:48;;;;;;;0.33;0.33;;;0.50;99.90;;;;;;4937199;29;20182;-62
2024/01/21 08:57:13;;;;;;;0.40;0.40;;;0.60;99.90;;;;;;4939568;29;20196;-63
2024/01/21 08:59:39;;;;;;;0.30;0.30;;;0.60;99.90;;;;;;4941184;29;20178;-62
2024/01/21 09:02:05;;;;;;;0.40;0.40;;;0.70;99.90;;;;;;4941500;29;20193;-62
2024/01/21 09:04:31;;;;;;;0.40;0.40;;;0.70;99.90;;;;;;4928429;29;20181;-61
2024/01/21 09:06:56;;;;;;;0.70;0.70;;;0.80;99.90;;;;;;4939454;29;20256;-61
2024/01/21 09:09:22;;;;;;;0.30;0.30;;;0.90;99.90;;;;;;4931153;29;20180;-60
2024/01/21 09:11:48;;;;;;;0.43;0.43;;;0.80;99.90;;;;;;4922571;29;20253;-61
2024/01/21 09:14:13;;;;;;;0.40;0.40;;;0.80;99.90;;;;;;4935538;29;20181;-62
2024/01/21 09:16:39;;;;;;;0.40;0.40;;;0.80;99.90;;;;;;4939506;29;20193;-61
2024/01/21 09:19:05;;;;;;;0.43;0.43;;;0.80;99.90;;;;;;4943760;29;20666;-61
2024/01/21 09:21:33;;;;;;;0.40;0.40;;;0.80;99.90;;;;;;4958328;29;20185;-61
2024/01/21 09:24:03;;;;;;;0.40;0.40;;;0.70;99.90;;;;;;4945373;28;20192;-63
2024/01/21 09:26:29;;;;;;;0.50;0.50;;;0.70;99.90;;;;;;4938537;29;20198;-64
2024/01/21 09:28:55;;;;;;;0.47;0.47;;;0.60;99.90;;;;;;4939031;29;20184;-62
2024/01/21 09:31:20;;;;;;;0.30;0.30;;;0.60;99.90;;;;;;4939913;29;20480;-65
2024/01/21 09:33:46;;;;;;;0.40;0.40;;;0.50;99.90;;;;;;4940115;29;20178;-62
2024/01/21 09:36:12;;;;;;;0.40;0.40;;;0.50;99.90;;;;;;4937909;29;20233;-62
2024/01/21 09:38:38;;;;;;;0.40;0.40;;;0.40;99.90;;;;;;4937369;29;20237;-65
2024/01/21 09:41:25;;;;;;;0.40;0.40;;;0.40;99.90;;;;;;4937499;29;20176;-63
2024/01/21 09:43:51;;;;;;;0.40;0.40;;;0.30;99.90;;;;;;4937475;29;20193;-62
2024/01/21 09:46:17;;;;;;;0.37;0.37;;;0.20;99.90;;;;;;4936842;29;20597;-61
2024/01/21 09:48:43;;;;;;;0.40;0.40;;;0.20;99.90;;;;;;4936220;29;20271;-62
2024/01/21 09:51:09;;;;;;;0.40;0.40;;;0.20;99.90;;;;;;4936852;29;20444;-65
2024/01/21 09:53:35;;;;;;;0.50;0.50;;;0.20;99.90;;;;;;4937275;29;20435;-61
2024/01/21 09:56:10;;;;;;;0.40;0.40;;;0.30;99.90;;;;;;4936865;29;20201;-62
2024/01/21 09:58:50;;;;;;;0.50;0.50;;;0.30;99.90;;;;;;4937033;29;20226;-63
2024/01/21 10:01:16;;;;;;;0.40;0.40;;;0.40;99.90;;;;;;4937632;29;20178;-62
2024/01/21 10:03:43;;;;;;;0.30;0.30;;;0.40;99.90;;;;;;4937317;29;20284;-61
2024/01/21 10:06:09;;;;;;;0.40;0.40;;;0.50;99.90;;;;;;4935753;29;20541;-61
2024/01/21 10:08:42;;;;;;;0.30;0.30;;;0.70;99.90;;;;;;4936889;29;20269;-65
2024/01/21 10:11:08;;;;;;;0.30;0.30;;;0.80;99.90;;;;;;4940906;29;20435;-63
2024/01/21 10:13:36;;;;;;;0.40;0.40;;;0.90;99.90;;;;;;4956357;28;20593;-62
2024/01/21 10:16:02;;;;;;;0.30;0.30;;;1.00;99.90;;;;;;4955905;28;20231;-63
2024/01/21 10:18:28;;;;;;;0.40;0.40;;;1.20;99.90;;;;;;4943092;29;20216;-61
2024/01/21 10:20:56;;;;;;;0.40;0.40;;;1.50;99.90;;;;;;4936457;29;20421;-64
2024/01/21 10:23:21;;;;;;;0.30;0.30;;;1.70;99.90;;;;;;4936169;29;20206;-61
2024/01/21 10:25:48;;;;;;;0.43;0.43;;;2.00;99.90;;;;;;4937061;29;20200;-62
2024/01/21 10:28:15;;;;;;;0.60;0.60;;;2.20;99.90;;;;;;4937579;29;20622;-62
2024/01/21 10:30:44;;;;;;;0.30;0.30;;;2.30;99.90;;;;;;4937404;29;20165;-62
2024/01/21 10:33:09;;;;;;;0.30;0.30;;;2.40;99.90;;;;;;4937144;29;20185;-62
2024/01/21 10:35:35;;;;;;;0.40;0.40;;;2.60;99.90;;;;;;4935647;29;20252;-62
2024/01/21 10:38:05;;;;;;;0.40;0.40;;;2.70;99.90;;;;;;4947697;29;20455;-61
2024/01/21 10:40:31;;;;;;;0.40;0.40;;;2.80;99.90;;;;;;4956386;28;20159;-63
2024/01/21 10:42:58;;;;;;;0.40;0.40;;;3.00;99.90;;;;;;4954926;28;20208;-62
2024/01/21 10:45:26;;;;;;;0.38;0.38;;;3.20;99.90;;;;;;4956013;28;20203;-63
2024/01/21 10:47:53;;;;;;;0.40;0.40;;;3.30;99.90;;;;;;4956317;28;20287;-63
2024/01/21 10:50:20;;;;;;;0.47;0.47;;;3.40;99.90;;;;;;4954884;28;20682;-62
2024/01/21 10:52:48;;;;;;;0.52;0.52;;;3.30;99.90;;;;;;4944917;28;20541;-63
2024/01/21 10:55:14;;;;;;;0.40;0.40;;;3.40;99.90;;;;;;4936533;29;20202;-62
2024/01/21 10:57:39;;;;;;;0.40;0.40;;;3.50;99.90;;;;;;4936883;29;20189;-64
2024/01/21 11:00:07;;;;;;;0.30;0.30;;;3.70;99.90;;;;;;4936894;29;20270;-63
2024/01/21 11:02:33;;;;;;;2.35;1.58;;;3.80;99.90;;;;;;4937015;29;20211;-63
2024/01/21 11:04:58;;;;;;;2.60;1.27;;;3.90;99.90;;;;;;4936382;29;20221;-63
2024/01/21 11:07:25;;;;;;;0.30;0.30;;;4.00;99.90;;;;;;4946189;29;20648;-63
2024/01/21 11:09:55;;;;;;;0.40;0.40;;;4.20;99.90;;;;;;4955950;28;20169;-62
2024/01/21 11:12:21;;;;;;;0.30;0.30;;;4.40;99.90;;;;;;4955815;28;20278;-62
2024/01/21 11:14:47;;;;;;;0.30;0.30;;;4.70;99.90;;;;;;4953905;29;20206;-61
2024/01/21 11:17:22;;;;;;;0.82;0.70;;;4.90;99.90;;;;;;4955226;28;20198;-61
2024/01/21 11:19:47;;;;;;;0.30;0.30;;;5.00;99.90;;;;;;4955624;28;20185;-62
2024/01/21 11:22:14;;;;;;;0.30;0.30;;;5.10;99.90;;;;;;4954961;29;20568;-62
2024/01/21 11:24:45;;;;;;;0.30;0.30;;;5.20;99.90;;;;;;4943193;28;20611;-62
2024/01/21 11:27:29;;;;;;;0.30;0.30;;;5.30;98.80;;;;;;4916959;29;20276;-62
2024/01/21 11:30:00;;;;;;;0.30;0.30;;;5.20;99.00;;;;;;4933517;29;20183;-61
2024/01/21 11:32:28;;;;;;;0.30;0.30;;;5.30;99.20;;;;;;4955097;28;20184;-60
2024/01/21 11:34:55;;;;;;;0.40;0.40;;;5.40;98.60;;;;;;4954726;28;20176;-61
2024/01/21 11:37:21;;;;;;;0.60;0.50;;;5.20;98.30;;;;;;4955176;28;20180;-65
2024/01/21 11:39:49;;;;;;;0.30;0.30;;;5.00;98.80;;;;;;4953633;29;20259;-62
2024/01/21 11:42:15;;;;;;;0.30;0.30;;;4.90;99.10;;;;;;4950857;28;20208;-62
2024/01/21 11:44:41;;;;;;;0.50;0.50;;;4.90;99.60;;;;;;4953200;29;20187;-64
2024/01/21 11:47:07;;;;;;;0.40;0.40;;;4.80;99.90;;;;;;4954808;29;20311;-63
2024/01/21 11:49:35;;;;;;;0.30;0.30;;;4.80;99.90;;;;;;4953391;29;20173;-62
2024/01/21 11:52:05;;;;;;;0.40;0.40;;;4.80;99.90;;;;;;4935704;29;20176;-61
2024/01/21 11:54:32;;;;;;;0.30;0.30;;;5.00;99.90;;;;;;4935589;29;20257;-61
2024/01/21 11:56:59;;;;;;;0.30;0.30;;;5.20;99.90;;;;;;4935228;29;20208;-64
2024/01/21 11:59:25;;;;;;;0.30;0.30;;;5.30;99.90;;;;;;4935072;29;20192;-61
2024/01/21 12:01:54;;;;;;;0.30;0.30;;;5.50;99.90;;;;;;4935367;29;20185;-62
2024/01/21 12:04:20;;;;;;;0.40;0.40;;;5.60;99.90;;;;;;4934648;29;20237;-63
2024/01/21 12:06:48;;;;;;;0.30;0.30;;;5.50;99.90;;;;;;4934623;29;20605;-61
2024/01/21 12:09:14;;;;;;;0.30;0.30;;;5.50;99.90;;;;;;4938738;29;20542;-62
2024/01/21 12:11:41;;;;;;;0.30;0.30;;;5.50;99.90;;;;;;4953772;28;20740;-60
2024/01/21 12:14:12;;;;;;;0.30;0.30;;;5.50;99.90;;;;;;4952546;29;20601;-62
2024/01/21 12:16:37;;;;;;;0.30;0.30;;;5.50;99.90;;;;;;4953660;28;20184;-62
2024/01/21 12:19:04;;;;;;;0.30;0.30;;;5.40;99.50;;;;;;4953586;28;20182;-60
2024/01/21 12:21:31;;;;;;;0.30;0.30;;;5.40;99.10;;;;;;4952559;29;20682;-63
2024/01/21 12:23:59;;;;;;;0.68;0.68;;;5.40;98.50;;;;;;4952767;28;20208;-63
2024/01/21 12:26:24;;;;;;;0.30;0.30;;;5.40;98.00;;;;;;4951139;29;20621;-63
2024/01/21 12:29:02;;;;;;;0.57;0.57;;;5.20;98.40;;;;;;4953860;28;20225;-61
2024/01/21 12:31:36;;;;;;;0.30;0.30;;;5.20;98.60;;;;;;4956838;28;20740;-61
2024/01/21 12:34:04;;;;;;;0.40;0.40;;;5.10;99.20;;;;;;4956025;28;20176;-62
2024/01/21 12:36:31;;;;;;;0.30;0.30;;;5.10;99.50;;;;;;4957266;29;20203;-62
2024/01/21 12:38:57;;;;;;;0.57;0.57;;;5.00;99.60;;;;;;4958740;29;20250;-62
2024/01/21 12:41:23;;;;;;;0.30;0.30;;;5.00;99.80;;;;;;4958583;29;20258;-61
2024/01/21 12:43:52;;;;;;;0.30;0.30;;;5.10;99.80;;;;;;4958573;29;20212;-61
2024/01/21 12:46:21;;;;;;;0.43;0.43;;;5.20;99.90;;;;;;4958001;29;20226;-62
2024/01/21 12:48:48;;;;;;;0.30;0.30;;;5.40;99.50;;;;;;4955096;29;20507;-62
2024/01/21 12:51:17;;;;;;;0.43;0.43;;;5.50;99.60;;;;;;4938105;29;20169;-61
2024/01/21 12:53:46;;;;;;;0.38;0.38;;;5.60;99.90;;;;;;4939292;29;20220;-60
2024/01/21 12:56:13;;;;;;;0.30;0.30;;;5.80;99.90;;;;;;4937470;29;20205;-61
2024/01/21 12:58:39;;;;;;;0.30;0.30;;;5.90;99.90;;;;;;4939053;29;20181;-61
2024/01/21 13:01:05;;;;;;;0.30;0.30;;;6.10;99.90;;;;;;4937901;29;20184;-62
2024/01/21 13:03:32;;;;;;;0.40;0.40;;;6.20;99.80;;;;;;4941828;29;20271;-60
2024/01/21 13:06:00;;;;;;;0.30;0.30;;;6.20;99.50;;;;;;4956359;29;20670;-60
2024/01/21 13:08:27;;;;;;;0.30;0.30;;;6.30;98.40;;;;;;4958305;28;20179;-61
2024/01/21 13:10:54;;;;;;;0.30;0.30;;;6.40;97.50;;;;;;4958111;28;20171;-61
2024/01/21 13:13:19;;;;;;;0.38;0.38;;;6.50;96.50;;;;;;4956733;29;20184;-61
2024/01/21 13:15:46;;;;;;;0.30;0.30;;;6.50;96.90;;;;;;4957728;28;20681;-62
2024/01/21 13:18:12;;;;;;;1.27;0.98;;;6.50;95.50;;;;;;4956470;28;20199;-62
2024/01/21 13:20:37;;;;;;;0.40;0.40;;;6.50;95.50;;;;;;4957787;29;20169;-61
2024/01/21 13:23:03;;;;;;;0.50;0.50;;;6.60;95.00;;;;;;4957703;29;20645;-60
2024/01/21 13:25:29;;;;;;;0.40;0.40;;;6.60;94.70;;;;;;4957465;29;20230;-63
2024/01/21 13:30:55;;;;;;;0.30;0.30;;;6.60;95.10;;;;;;4925297;28;20203;-61
2024/01/21 13:33:22;;;;;;;0.40;0.40;;;6.50;95.60;;;;;;4949776;29;20191;-62
2024/01/21 13:35:48;;;;;;;0.40;0.40;;;6.50;95.70;;;;;;4937966;29;20247;-62
2024/01/21 13:38:24;;;;;;;0.30;0.30;;;6.40;96.20;;;;;;4938108;29;20277;-61
2024/01/21 13:40:50;;;;;;;0.30;0.30;;;6.40;96.00;;;;;;4938525;29;20178;-61
2024/01/21 13:43:16;;;;;;;0.70;0.50;;;6.40;95.20;;;;;;4938320;29;20291;-60
2024/01/21 13:45:42;;;;;;;0.30;0.30;;;6.40;95.00;;;;;;4937849;29;20436;-62
2024/01/21 13:48:08;;;;;;;0.33;0.33;;;6.40;94.70;;;;;;4938314;29;20264;-63
2024/01/21 13:50:36;;;;;;;0.32;0.32;;;6.30;94.80;;;;;;4938023;29;20177;-63
2024/01/21 13:53:02;;;;;;;0.40;0.40;;;6.20;95.70;;;;;;4919373;29;20555;-60
2024/01/21 13:55:28;;;;;;;0.35;0.35;;;6.20;96.00;;;;;;4918761;29;20601;-61
2024/01/21 13:57:54;;;;;;;0.30;0.30;;;6.20;95.40;;;;;;4919011;29;20253;-61
2024/01/21 14:00:22;;;;;;;0.80;0.80;;;6.20;96.10;;;;;;4919205;29;20181;-62
2024/01/21 14:02:49;;;;;;;0.30;0.30;;;6.20;95.50;;;;;;4925611;29;20205;-61
2024/01/21 14:05:15;;;;;;;0.30;0.30;;;6.20;95.10;;;;;;4937515;29;20204;-61
2024/01/21 14:07:41;;;;;;;0.30;0.30;;;6.30;94.70;;;;;;4937766;29;20203;-62
2024/01/21 14:10:08;;;;;;;0.40;0.40;;;6.20;95.50;;;;;;4938118;29;20205;-60
2024/01/21 14:12:34;;;;;;;0.40;0.40;;;6.30;94.60;;;;;;4937870;29;20249;-61
2024/01/21 14:15:00;;;;;;;0.30;0.30;;;6.30;94.50;;;;;;4937510;29;20177;-61
2024/01/21 14:17:28;;;;;;;0.33;0.33;;;6.30;94.20;;;;;;4938033;29;20252;-66
2024/01/21 14:19:54;;;;;;;0.65;0.65;;;6.30;95.90;;;;;;4937696;29;20249;-61
2024/01/21 14:22:20;;;;;;;0.30;0.30;;;6.30;96.80;;;;;;4936734;29;20285;-62
2024/01/21 14:24:46;;;;;;;0.40;0.40;;;6.30;97.00;;;;;;4936300;29;20409;-61
2024/01/21 14:27:12;;;;;;;0.30;0.30;;;6.30;96.40;;;;;;4936484;29;20197;-61
2024/01/21 14:29:42;;;;;;;0.30;0.30;;;6.30;96.30;;;;;;4937734;29;20175;-62
2024/01/21 14:32:08;;;;;;;0.30;0.30;;;6.30;96.20;;;;;;4937470;29;20468;-61
2024/01/21 14:34:34;;;;;;;0.30;0.30;;;6.40;96.10;;;;;;4935827;29;21009;-60
2024/01/21 14:36:59;;;;;;;0.93;0.93;;;6.40;95.50;;;;;;4937364;29;20252;-62
2024/01/21 14:39:25;;;;;;;0.30;0.30;;;6.40;95.30;;;;;;4937259;29;20646;-61
2024/01/21 14:41:51;;;;;;;0.30;0.30;;;6.50;96.00;;;;;;4935948;29;20204;-61
2024/01/21 14:44:16;;;;;;;0.30;0.30;;;6.50;96.40;;;;;;4936857;29;20170;-60
2024/01/21 14:46:43;;;;;;;0.50;0.50;;;6.60;94.70;;;;;;4940453;29;20201;-61
2024/01/21 14:49:09;;;;;;;0.30;0.30;;;6.60;94.50;;;;;;4954839;29;20287;-62
2024/01/21 14:51:35;;;;;;;0.40;0.40;;;6.70;94.20;;;;;;4956039;28;20592;-62
2024/01/21 14:54:00;;;;;;;0.30;0.30;;;6.70;94.10;;;;;;4956443;28;20292;-62
2024/01/21 14:56:26;;;;;;;0.37;0.37;;;6.80;93.90;;;;;;4955654;29;20189;-62
2024/01/21 14:58:52;;;;;;;0.30;0.30;;;6.80;93.90;;;;;;4954898;28;20180;-62
2024/01/21 15:01:17;;;;;;;0.30;0.30;;;6.90;94.10;;;;;;4956076;29;20189;-62
2024/01/21 15:03:43;;;;;;;0.30;0.30;;;6.90;94.00;;;;;;4956034;28;20223;-61
2024/01/21 15:06:09;;;;;;;0.30;0.30;;;7.00;94.10;;;;;;4954246;29;20240;-62
2024/01/21 15:08:36;;;;;;;0.40;0.40;;;7.10;93.60;;;;;;4955784;29;20176;-62
2024/01/21 15:11:02;;;;;;;0.40;0.40;;;7.10;93.30;;;;;;4956637;28;20547;-62
2024/01/21 15:13:30;;;;;;;0.30;0.30;;;7.10;93.20;;;;;;4955871;28;20188;-62
2024/01/21 15:15:55;;;;;;;0.40;0.40;;;7.10;93.30;;;;;;4953849;28;20243;-62
2024/01/21 15:18:21;;;;;;;0.60;0.60;;;7.10;93.30;;;;;;4936816;29;20212;-62
2024/01/21 15:20:47;;;;;;;0.30;0.30;;;7.10;93.40;;;;;;4936973;29;20189;-62
2024/01/21 15:23:13;;;;;;;0.30;0.30;;;7.10;93.30;;;;;;4936528;29;20819;-62
2024/01/21 15:25:39;;;;;;;0.30;0.30;;;7.10;93.20;;;;;;4936132;29;20277;-62
2024/01/21 15:28:05;;;;;;;0.30;0.30;;;7.10;93.20;;;;;;4936609;29;20591;-60
2024/01/21 15:30:31;;;;;;;0.35;0.35;;;7.10;93.00;;;;;;4936543;29;20213;-61
2024/01/21 15:32:57;;;;;;;0.30;0.30;;;7.00;93.50;;;;;;4936284;29;20204;-61
2024/01/21 15:35:22;;;;;;;0.30;0.30;;;6.90;94.30;;;;;;4935819;29;20200;-62
2024/01/21 15:37:48;;;;;;;0.30;0.30;;;6.70;94.60;;;;;;4936276;29;20180;-60
2024/01/21 15:40:14;;;;;;;0.30;0.30;;;6.70;94.90;;;;;;4936386;29;20181;-60
2024/01/21 15:42:40;;;;;;;0.30;0.30;;;6.60;94.90;;;;;;4936138;29;20215;-60
2024/01/21 15:45:09;;;;;;;0.30;0.30;;;6.50;95.40;;;;;;4934437;29;20174;-61
2024/01/21 15:47:39;;;;;;;0.30;0.30;;;6.40;95.70;;;;;;4953026;29;20335;-61
2024/01/21 15:50:06;;;;;;;0.30;0.30;;;6.40;95.30;;;;;;4954067;29;20176;-60
2024/01/21 15:52:34;;;;;;;0.30;0.30;;;6.30;95.10;;;;;;4955297;28;20177;-61
2024/01/21 15:55:00;;;;;;;0.30;0.30;;;6.20;94.70;;;;;;4953585;29;20238;-61
2024/01/21 15:57:26;;;;;;;0.30;0.30;;;6.30;94.20;;;;;;4955221;28;20184;-62
2024/01/21 15:59:51;;;;;;;0.30;0.30;;;6.30;94.20;;;;;;4955213;28;20669;-61
2024/01/21 16:02:17;;;;;;;0.30;0.30;;;6.40;94.10;;;;;;4954527;28;20243;-62
2024/01/21 16:04:43;;;;;;;0.30;0.30;;;6.40;94.00;;;;;;4953747;28;20620;-61
2024/01/21 16:07:09;;;;;;;0.30;0.30;;;6.40;94.00;;;;;;4954334;28;20204;-62
2024/01/21 16:09:35;;;;;;;0.63;0.63;;;6.50;93.70;;;;;;4946992;28;20462;-62
2024/01/21 16:12:04;;;;;;;0.30;0.30;;;6.50;94.60;;;;;;4955072;28;20498;-63
2024/01/21 16:14:29;;;;;;;0.30;0.30;;;6.40;95.00;;;;;;4949114;28;20180;-62
2024/01/21 16:16:55;;;;;;;0.33;0.33;;;6.40;94.00;;;;;;4940676;29;20236;-61
2024/01/21 16:19:22;;;;;;;0.30;0.30;;;6.40;94.90;;;;;;4935546;29;20654;-63
2024/01/21 16:21:52;;;;;;;0.38;0.38;;;6.40;93.80;;;;;;4954716;28;20168;-62
2024/01/21 16:24:19;;;;;;;0.30;0.30;;;6.50;93.90;;;;;;4954638;28;20255;-63
2024/01/21 16:26:45;;;;;;;0.38;0.38;;;6.50;93.50;;;;;;4946403;28;20599;-63
2024/01/21 16:29:10;;;;;;;0.33;0.33;;;6.50;93.70;;;;;;4935476;29;20177;-66
2024/01/21 16:31:36;;;;;;;0.30;0.30;;;6.60;93.20;;;;;;4933842;29;20407;-64
2024/01/21 16:34:02;;;;;;;0.40;0.40;;;6.60;93.90;;;;;;4927292;29;20255;-62
2024/01/21 16:36:27;;;;;;;0.33;0.33;;;6.60;93.10;;;;;;4915712;29;20209;-63
2024/01/21 16:38:53;;;;;;;0.40;0.40;;;6.60;93.00;;;;;;4916304;29;20184;-62
2024/01/21 16:41:19;;;;;;;0.40;0.40;;;6.50;93.70;;;;;;4916489;29;20655;-61
2024/01/21 16:43:44;;;;;;;0.30;0.30;;;6.50;94.00;;;;;;4916320;29;20571;-62
2024/01/21 16:46:10;;;;;;;0.30;0.30;;;6.40;94.80;;;;;;4921987;29;20277;-61
2024/01/21 16:48:35;;;;;;;1.03;1.03;;;6.40;94.40;;;;;;4934058;29;20263;-62
2024/01/21 16:51:09;;;;;;;0.40;0.40;;;6.30;94.40;;;;;;4934032;29;20509;-63
2024/01/21 16:53:35;;;;;;;0.30;0.30;;;6.20;94.50;;;;;;4935283;29;20177;-62
2024/01/21 16:56:04;;;;;;;0.30;0.30;;;6.20;94.90;;;;;;4934908;29;20204;-63
2024/01/21 16:58:30;;;;;;;0.82;0.82;;;6.10;95.20;;;;;;4934578;29;20207;-63
2024/01/21 17:00:59;;;;;;;0.57;0.57;;;6.00;95.50;;;;;;4934822;29;20642;-64
2024/01/21 17:03:26;;;;;;;0.30;0.30;;;5.90;95.80;;;;;;4934687;29;20244;-64
2024/01/21 17:05:52;;;;;;;1.17;1.13;;;5.80;95.90;;;;;;4933414;29;20193;-64
2024/01/21 17:08:17;;;;;;;0.40;0.40;;;5.70;96.40;;;;;;4934918;29;20520;-62
2024/01/21 17:10:51;;;;;;;0.40;0.40;;;5.60;97.10;;;;;;4935087;29;20177;-64
2024/01/21 17:13:16;;;;;;;1.50;1.40;;;5.40;97.50;;;;;;4936835;29;20208;-63
2024/01/21 17:15:42;;;;;;;0.30;0.30;;;5.30;97.20;;;;;;4956212;28;20234;-62
2024/01/21 17:18:23;;;;;;;0.40;0.40;;;5.30;97.80;;;;;;4957857;29;20267;-65
2024/01/21 17:20:52;;;;;;;0.35;0.35;;;5.10;98.80;;;;;;4957818;29;20228;-62
2024/01/21 17:23:21;;;;;;;0.40;0.40;;;5.00;99.40;;;;;;4957588;28;20199;-63
2024/01/21 17:25:46;;;;;;;0.40;0.40;;;4.90;99.20;;;;;;4957171;29;20199;-63
2024/01/21 17:28:12;;;;;;;0.30;0.30;;;4.80;99.90;;;;;;4957705;28;20173;-61
2024/01/21 17:30:38;;;;;;;0.93;0.93;;;4.80;99.90;;;;;;4957651;29;20178;-61
2024/01/21 17:33:03;;;;;;;0.40;0.40;;;4.70;99.90;;;;;;4957566;29;20257;-63
2024/01/21 17:35:30;;;;;;;0.40;0.40;;;4.60;99.90;;;;;;4956967;29;20194;-62
2024/01/21 17:37:55;;;;;;;0.30;0.30;;;4.50;99.90;;;;;;4941768;29;20439;-61
2024/01/21 17:40:21;;;;;;;0.40;0.40;;;4.40;99.90;;;;;;4937098;29;20185;-61
2024/01/21 17:42:47;;;;;;;0.40;0.40;;;4.30;99.90;;;;;;4938330;29;20229;-62
2024/01/21 17:45:13;;;;;;;0.30;0.30;;;4.20;99.90;;;;;;4937992;29;20198;-62
2024/01/21 17:47:39;;;;;;;0.40;0.40;;;4.20;99.90;;;;;;4938142;29;20175;-62
2024/01/21 17:50:06;;;;;;;0.37;0.37;;;4.10;99.90;;;;;;4936849;29;20170;-62
2024/01/21 17:52:32;;;;;;;0.30;0.30;;;4.00;99.90;;;;;;4951342;29;20180;-61
2024/01/21 17:55:01;;;;;;;0.40;0.40;;;4.00;99.90;;;;;;4942805;28;20257;-62
2024/01/21 17:57:30;;;;;;;0.63;0.63;;;3.90;99.90;;;;;;4947387;29;20185;-62
2024/01/21 17:59:55;;;;;;;0.30;0.30;;;3.90;99.90;;;;;;4957288;28;20212;-61